createdAt,value
2022-08-07T00:00:25.934Z,10.71
2022-08-07T00:02:55.951Z,10.67
2022-08-07T00:05:24.043Z,10.64
2022-08-07T00:08:00.089Z,10.49
2022-08-07T00:10:30.924Z,10.57
2022-08-07T00:13:23.562Z,10.60
2022-08-07T00:15:50.967Z,10.23
2022-08-07T00:18:24.303Z,10.43
2022-08-07T00:20:54.891Z,10.51
2022-08-07T00:23:28.471Z,10.42
2022-08-07T00:25:59.218Z,10.18
2022-08-07T00:28:33.734Z,10.37
2022-08-07T00:31:04.553Z,10.33
2022-08-07T00:33:35.625Z,10.40
2022-08-07T00:36:04.552Z,10.34
2022-08-07T00:38:34.964Z,10.20
2022-08-07T00:41:05.211Z,10.27
2022-08-07T00:44:00.198Z,10.14
2022-08-07T00:46:26.208Z,10.06
2022-08-07T00:48:53.987Z,10.02
2022-08-07T00:51:21.985Z,10.12
2022-08-07T00:53:55.332Z,10.10
2022-08-07T00:56:30.033Z,10.00
2022-08-07T00:58:59.467Z,9.81
2022-08-07T01:01:27.576Z,9.97
2022-08-07T01:04:00.052Z,9.95
2022-08-07T01:06:29.923Z,9.94
2022-08-07T01:09:01.130Z,9.96
2022-08-07T01:12:24.005Z,9.91
2022-08-07T01:14:17.640Z,9.92
2022-08-07T01:16:50.502Z,9.81
2022-08-07T01:19:20.015Z,9.81
2022-08-07T01:21:53.190Z,9.73
2022-08-07T01:24:23.752Z,9.78
2022-08-07T01:26:52.756Z,9.77
2022-08-07T01:29:24.030Z,9.76
2022-08-07T01:31:59.275Z,9.72
2022-08-07T01:34:30.904Z,9.70
2022-08-07T01:37:01.565Z,9.49
2022-08-07T01:39:40.736Z,9.62
2022-08-07T01:42:39.015Z,9.42
2022-08-07T01:45:04.584Z,9.61
2022-08-07T01:48:19.203Z,9.55
2022-08-07T01:50:22.666Z,9.35
2022-08-07T01:52:59.247Z,9.46
2022-08-07T01:55:29.643Z,9.43
2022-08-07T01:58:06.667Z,9.45
2022-08-07T02:01:09.984Z,9.52
2022-08-07T02:03:53.665Z,9.53
2022-08-07T02:06:31.879Z,9.42
2022-08-07T02:09:05.006Z,9.39
2022-08-07T02:12:03.704Z,9.28
2022-08-07T02:14:35.685Z,9.35
2022-08-07T02:17:06.056Z,9.23
2022-08-07T02:20:04.819Z,9.29
2022-08-07T02:22:26.209Z,9.22
2022-08-07T02:25:00.273Z,9.16
2022-08-07T02:27:34.226Z,9.15
2022-08-07T02:30:07.091Z,9.16
2022-08-07T02:32:39.427Z,9.23
2022-08-07T02:35:12.399Z,9.19
2022-08-07T02:37:49.767Z,9.14
2022-08-07T02:40:30.503Z,9.15
2022-08-07T02:43:01.608Z,9.07
2022-08-07T02:46:01.077Z,9.03
2022-08-07T02:48:28.269Z,8.98
2022-08-07T02:50:58.280Z,9.10
2022-08-07T02:53:38.228Z,9.17
2022-08-07T02:56:17.385Z,9.26
2022-08-07T02:58:50.776Z,9.26
2022-08-07T03:01:35.571Z,9.25
2022-08-07T03:04:07.212Z,9.28
2022-08-07T03:06:38.846Z,9.28
2022-08-07T03:09:07.675Z,9.44
2022-08-07T03:11:52.296Z,9.51
2022-08-07T03:14:27.847Z,9.41
2022-08-07T03:16:56.909Z,9.57
2022-08-07T03:19:28.976Z,9.61
2022-08-07T03:21:57.388Z,9.53
2022-08-07T03:24:28.060Z,9.45
2022-08-07T03:27:03.100Z,9.59
2022-08-07T03:29:38.618Z,9.59
2022-08-07T03:32:14.003Z,9.71
2022-08-07T03:34:47.497Z,9.60
2022-08-07T03:37:32.564Z,9.51
2022-08-07T03:40:16.378Z,9.39
2022-08-07T03:42:46.563Z,9.46
2022-08-07T03:45:29.466Z,9.42
2022-08-07T03:47:59.700Z,9.47
2022-08-07T03:50:29.235Z,9.28
2022-08-07T03:52:59.051Z,9.25
2022-08-07T03:55:52.905Z,9.47
2022-08-07T03:59:05.349Z,9.24
2022-08-07T04:01:11.260Z,9.15
2022-08-07T04:03:49.819Z,9.27
2022-08-07T04:06:37.050Z,9.13
2022-08-07T04:09:06.527Z,9.12
2022-08-07T04:12:25.208Z,9.09
2022-08-07T04:14:38.867Z,9.06
2022-08-07T04:17:19.810Z,9.04
2022-08-07T04:19:52.683Z,8.96
2022-08-07T04:22:29.393Z,9.04
2022-08-07T04:25:00.898Z,9.00
2022-08-07T04:27:38.135Z,8.85
2022-08-07T04:30:21.628Z,8.78
2022-08-07T04:33:07.347Z,8.93
2022-08-07T04:35:36.047Z,8.91
2022-08-07T04:38:07.928Z,8.77
2022-08-07T04:40:36.414Z,8.93
2022-08-07T04:43:22.117Z,9.03
2022-08-07T04:46:25.746Z,8.87
2022-08-07T04:49:07.470Z,8.98
2022-08-07T04:51:56.239Z,9.14
2022-08-07T04:54:33.407Z,9.10
2022-08-07T04:58:16.756Z,9.08
2022-08-07T05:00:11.477Z,9.16
2022-08-07T05:02:49.039Z,9.08
2022-08-07T05:05:52.085Z,9.21
2022-08-07T05:08:19.314Z,9.27
2022-08-07T05:11:19.552Z,9.27
2022-08-07T05:14:53.899Z,9.38
2022-08-07T05:16:52.514Z,9.37
2022-08-07T05:19:44.106Z,9.47
2022-08-07T05:22:26.677Z,9.79
2022-08-07T05:24:59.587Z,9.96
2022-08-07T05:28:02.726Z,10.04
2022-08-07T05:30:30.001Z,10.06
2022-08-07T05:33:03.358Z,10.41
2022-08-07T05:35:41.885Z,10.63
2022-08-07T05:38:12.452Z,10.70
2022-08-07T05:41:01.187Z,11.07
2022-08-07T05:43:49.906Z,11.17
2022-08-07T05:46:18.728Z,11.50
2022-08-07T05:48:59.175Z,11.60
2022-08-07T05:51:31.777Z,11.93
2022-08-07T05:54:13.023Z,12.15
2022-08-07T05:56:51.514Z,12.42
2022-08-07T05:59:20.858Z,12.61
2022-08-07T06:01:51.491Z,12.69
2022-08-07T06:04:29.785Z,13.01
2022-08-07T06:07:04.530Z,13.22
2022-08-07T06:10:04.547Z,13.42
2022-08-07T06:12:27.843Z,13.49
2022-08-07T06:15:05.595Z,13.60
2022-08-07T06:17:38.152Z,13.85
2022-08-07T06:20:12.796Z,14.17
2022-08-07T06:23:02.058Z,14.38
2022-08-07T06:25:54.484Z,14.69
2022-08-07T06:28:27.589Z,14.82
2022-08-07T06:30:58.348Z,14.98
2022-08-07T06:33:27.434Z,15.19
2022-08-07T06:36:12.082Z,15.22
2022-08-07T06:38:58.715Z,15.31
2022-08-07T06:42:01.198Z,15.46
2022-08-07T06:44:30.992Z,15.93
2022-08-07T06:47:10.104Z,16.03
2022-08-07T06:49:51.807Z,16.40
2022-08-07T06:52:31.957Z,16.67
2022-08-07T06:55:33.208Z,16.94
2022-08-07T06:58:01.635Z,17.25
2022-08-07T07:00:35.391Z,17.48
2022-08-07T07:03:10.888Z,17.76
2022-08-07T07:06:05.016Z,17.97
2022-08-07T07:08:33.563Z,18.04
2022-08-07T07:11:13.049Z,18.25
2022-08-07T07:14:01.273Z,18.27
2022-08-07T07:16:45.219Z,18.60
2022-08-07T07:19:55.100Z,18.80
2022-08-07T07:22:32.269Z,18.81
2022-08-07T07:25:02.898Z,19.14
2022-08-07T07:27:55.787Z,19.31
2022-08-07T07:30:38.377Z,19.45
2022-08-07T07:33:11.453Z,19.59
2022-08-07T07:35:50.657Z,19.88
2022-08-07T07:38:31.823Z,19.97
2022-08-07T07:41:04.277Z,20.06
2022-08-07T07:44:13.886Z,20.08
2022-08-07T07:46:38.576Z,19.64
2022-08-07T07:50:33.339Z,19.51
2022-08-07T07:52:07.938Z,20.25
2022-08-07T07:54:38.728Z,20.70
2022-08-07T07:57:14.049Z,20.90
2022-08-07T07:59:52.574Z,21.24
2022-08-07T08:02:33.949Z,21.09
2022-08-07T08:05:05.253Z,21.12
2022-08-07T08:07:42.366Z,21.61
2022-08-07T08:10:38.329Z,21.94
2022-08-07T08:13:10.371Z,20.82
2022-08-07T08:15:59.027Z,20.85
2022-08-07T08:18:30.024Z,21.77
2022-08-07T08:21:03.871Z,21.52
2022-08-07T08:23:54.489Z,21.85
2022-08-07T08:26:50.275Z,22.46
2022-08-07T08:29:19.971Z,22.78
2022-08-07T08:31:58.969Z,22.63
2022-08-07T08:34:42.105Z,21.99
2022-08-07T08:38:00.605Z,22.53
2022-08-07T08:40:04.345Z,21.68
2022-08-07T08:42:44.480Z,22.30
2022-08-07T08:45:19.552Z,22.24
2022-08-07T08:48:03.136Z,22.79
2022-08-07T08:50:40.003Z,23.30
2022-08-07T08:53:19.281Z,22.97
2022-08-07T08:55:53.267Z,23.50
2022-08-07T08:58:35.908Z,23.57
2022-08-07T09:01:15.207Z,23.33
2022-08-07T09:04:01.025Z,23.11
2022-08-07T09:06:38.513Z,23.38
2022-08-07T09:09:29.912Z,23.83
2022-08-07T09:12:30.509Z,24.11
2022-08-07T09:16:21.761Z,24.14
2022-08-07T09:18:16.938Z,24.41
2022-08-07T09:21:00.813Z,24.60
2022-08-07T09:24:30.793Z,23.72
2022-08-07T09:26:34.671Z,24.18
2022-08-07T09:30:05.237Z,23.98
2022-08-07T09:32:17.282Z,23.68
2022-08-07T09:35:00.046Z,24.64
2022-08-07T09:37:54.120Z,24.99
2022-08-07T09:40:27.959Z,24.96
2022-08-07T09:43:08.202Z,25.09
2022-08-07T09:47:50.442Z,25.50
2022-08-07T09:48:50.212Z,25.70
2022-08-07T09:52:09.928Z,26.19
2022-08-07T09:54:45.246Z,26.26
2022-08-07T09:57:51.107Z,26.43
2022-08-07T10:00:29.910Z,26.44
2022-08-07T10:04:05.660Z,26.72
2022-08-07T10:06:30.481Z,25.86
2022-08-07T10:09:58.903Z,26.29
2022-08-07T10:12:53.107Z,26.09
2022-08-07T10:15:44.675Z,26.36
2022-08-07T10:18:26.811Z,25.40
2022-08-07T10:21:19.530Z,26.36
2022-08-07T10:24:21.527Z,25.70
2022-08-07T10:27:10.208Z,25.61
2022-08-07T10:30:12.347Z,24.11
2022-08-07T10:33:16.051Z,24.39
2022-08-07T10:36:11.307Z,23.48
2022-08-07T10:38:52.846Z,25.13
2022-08-07T10:41:47.169Z,25.74
2022-08-07T10:44:37.375Z,26.01
2022-08-07T10:47:27.018Z,26.23
2022-08-07T10:50:07.041Z,26.96
2022-08-07T10:52:51.199Z,26.40
2022-08-07T10:55:38.062Z,26.11
2022-08-07T10:58:33.080Z,26.55
2022-08-07T11:01:22.357Z,26.31
2022-08-07T11:04:23.136Z,26.65
2022-08-07T11:06:59.581Z,26.68
2022-08-07T11:10:09.400Z,26.34
2022-08-07T11:12:32.257Z,26.86
2022-08-07T11:15:09.687Z,27.58
2022-08-07T11:17:49.384Z,26.75
2022-08-07T11:20:24.498Z,26.75
2022-08-07T11:22:59.369Z,24.65
2022-08-07T11:25:36.265Z,24.17
2022-08-07T11:28:16.711Z,25.40
2022-08-07T11:30:55.807Z,25.96
2022-08-07T11:33:53.541Z,24.61
2022-08-07T11:36:40.716Z,25.73
2022-08-07T11:39:23.672Z,25.96
2022-08-07T11:42:02.884Z,25.98
2022-08-07T11:44:52.391Z,26.24
2022-08-07T11:47:55.846Z,26.48
2022-08-07T11:50:57.649Z,25.71
2022-08-07T11:53:43.078Z,25.91
2022-08-07T11:56:43.263Z,26.79
2022-08-07T12:00:12.652Z,27.10
2022-08-07T12:02:31.797Z,27.66
2022-08-07T12:05:28.841Z,28.21
2022-08-07T12:08:25.784Z,27.96
2022-08-07T12:11:20.366Z,28.15
2022-08-07T12:13:55.399Z,28.19
2022-08-07T12:16:30.375Z,28.01
2022-08-07T12:19:14.805Z,28.12
2022-08-07T12:22:39.523Z,28.02
2022-08-07T12:26:00.818Z,27.82
2022-08-07T12:28:10.283Z,28.19
2022-08-07T12:30:46.587Z,27.09
2022-08-07T12:33:23.301Z,27.91
2022-08-07T12:35:58.439Z,27.78
2022-08-07T12:38:42.645Z,28.71
2022-08-07T12:41:12.969Z,28.23
2022-08-07T12:44:03.525Z,28.10
2022-08-07T12:46:46.253Z,27.76
2022-08-07T12:49:39.663Z,27.87
2022-08-07T12:52:17.904Z,28.17
2022-08-07T12:54:54.591Z,28.27
2022-08-07T12:57:39.045Z,28.10
2022-08-07T13:00:31.339Z,27.90
2022-08-07T13:03:27.050Z,27.62
2022-08-07T13:06:26.885Z,28.27
2022-08-07T13:09:33.426Z,28.29
2022-08-07T13:12:03.168Z,28.94
2022-08-07T13:14:51.532Z,28.95
2022-08-07T13:17:40.739Z,29.08
2022-08-07T13:20:17.010Z,29.58
2022-08-07T13:22:52.764Z,29.43
2022-08-07T13:25:30.712Z,29.56
2022-08-07T13:28:11.300Z,29.02
2022-08-07T13:30:52.147Z,27.12
2022-08-07T13:34:32.138Z,28.31
2022-08-07T13:36:25.846Z,28.24
2022-08-07T13:39:02.404Z,28.60
2022-08-07T13:41:42.203Z,28.30
2022-08-07T13:44:13.105Z,28.08
2022-08-07T13:46:49.379Z,28.04
2022-08-07T13:50:32.658Z,28.42
2022-08-07T13:52:31.614Z,28.19
2022-08-07T13:54:58.643Z,28.28
2022-08-07T13:57:38.102Z,28.14
2022-08-07T14:00:13.552Z,28.83
2022-08-07T14:02:57.412Z,28.80
2022-08-07T14:05:29.019Z,28.50
2022-08-07T14:08:08.747Z,28.49
2022-08-07T14:10:42.450Z,28.33
2022-08-07T14:13:16.875Z,27.73
2022-08-07T14:15:52.878Z,28.09
2022-08-07T14:18:30.679Z,28.87
2022-08-07T14:21:08.147Z,29.08
2022-08-07T14:24:00.351Z,29.29
2022-08-07T14:26:37.134Z,29.26
2022-08-07T14:30:05.482Z,28.98
2022-08-07T14:32:02.239Z,28.20
2022-08-07T14:34:32.769Z,28.44
2022-08-07T14:37:04.609Z,28.59
2022-08-07T14:40:18.044Z,28.28
2022-08-07T14:42:32.326Z,28.74
2022-08-07T14:47:58.508Z,28.06
2022-08-07T14:50:27.997Z,28.82
2022-08-07T14:55:56.080Z,27.29
2022-08-07T14:58:33.390Z,28.18
2022-08-07T15:01:21.319Z,28.22
2022-08-07T15:03:52.874Z,26.38
2022-08-07T15:06:26.224Z,27.11
2022-08-07T15:08:56.438Z,28.14
2022-08-07T15:11:48.743Z,28.33
2022-08-07T15:14:25.346Z,27.88
2022-08-07T15:17:01.896Z,27.29
2022-08-07T15:20:23.644Z,27.43
2022-08-07T15:22:31.400Z,27.80
2022-08-07T15:28:32.858Z,27.63
2022-08-07T15:30:59.537Z,27.49
2022-08-07T15:33:36.003Z,27.42
2022-08-07T15:36:07.704Z,27.49
2022-08-07T15:42:44.621Z,26.70
2022-08-07T15:44:23.755Z,27.10
2022-08-07T15:46:58.506Z,26.92
2022-08-07T15:52:30.781Z,27.10
2022-08-07T15:55:02.683Z,26.84
2022-08-07T15:57:39.777Z,26.85
2022-08-07T16:00:31.115Z,26.21
2022-08-07T16:03:04.863Z,26.29
2022-08-07T16:05:34.320Z,26.06
2022-08-07T16:08:31.705Z,25.93
2022-08-07T16:11:02.662Z,25.63
2022-08-07T16:14:07.040Z,26.19
2022-08-07T16:16:57.186Z,26.08
2022-08-07T16:19:59.764Z,26.07
2022-08-07T16:22:55.396Z,25.76
2022-08-07T16:25:55.006Z,25.84
2022-08-07T16:29:18.426Z,25.45
2022-08-07T16:31:50.087Z,25.59
2022-08-07T16:34:40.352Z,25.55
2022-08-07T16:38:06.364Z,25.48
2022-08-07T16:41:02.288Z,25.42
2022-08-07T16:44:05.865Z,25.33
2022-08-07T16:47:16.678Z,25.18
2022-08-07T16:50:35.829Z,25.09
2022-08-07T16:54:01.693Z,24.82
2022-08-07T16:56:20.931Z,24.67
2022-08-07T16:59:11.316Z,24.60
2022-08-07T17:02:02.876Z,24.66
2022-08-07T17:04:57.792Z,24.59
2022-08-07T17:07:51.517Z,24.37
2022-08-07T17:10:33.381Z,24.38
2022-08-07T17:13:20.258Z,24.29
2022-08-07T17:15:55.151Z,24.34
2022-08-07T17:18:31.453Z,24.20
2022-08-07T17:20:59.807Z,24.16
2022-08-07T17:23:52.750Z,24.05
2022-08-07T17:26:30.579Z,24.07
2022-08-07T17:30:13.102Z,24.12
2022-08-07T17:32:06.672Z,23.98
2022-08-07T17:34:57.127Z,23.98
2022-08-07T17:38:05.803Z,23.90
2022-08-07T17:40:30.462Z,23.67
2022-08-07T17:43:18.147Z,23.65
2022-08-07T17:46:00.069Z,23.49
2022-08-07T17:48:34.473Z,23.56
2022-08-07T17:51:12.759Z,23.40
2022-08-07T17:54:02.089Z,23.35
2022-08-07T17:56:49.323Z,23.29
2022-08-07T17:59:24.111Z,23.16
2022-08-07T18:01:58.884Z,23.15
2022-08-07T18:04:34.466Z,23.09
2022-08-07T18:07:20.841Z,22.97
2022-08-07T18:10:05.578Z,22.92
2022-08-07T18:12:49.455Z,22.83
2022-08-07T18:15:23.916Z,22.80
2022-08-07T18:21:02.474Z,22.86
2022-08-07T18:21:30.072Z,22.69
2022-08-07T18:24:02.010Z,22.61
2022-08-07T18:27:07.100Z,22.43
2022-08-07T18:30:06.279Z,22.30
2022-08-07T18:32:56.032Z,22.31
2022-08-07T18:35:51.550Z,22.28
2022-08-07T18:38:56.457Z,22.15
2022-08-07T18:41:20.823Z,22.09
2022-08-07T18:43:58.916Z,22.04
2022-08-07T18:46:43.114Z,21.90
2022-08-07T18:50:05.934Z,21.89
2022-08-07T18:52:52.772Z,21.82
2022-08-07T18:55:40.875Z,21.64
2022-08-07T18:58:26.465Z,21.28
2022-08-07T19:01:06.741Z,21.20
2022-08-07T19:03:45.596Z,21.00
2022-08-07T19:06:21.555Z,20.93
2022-08-07T19:09:54.869Z,20.67
2022-08-07T19:12:15.477Z,20.47
2022-08-07T19:15:00.783Z,20.41
2022-08-07T19:17:55.945Z,20.20
2022-08-07T19:20:39.715Z,20.14
2022-08-07T19:23:57.983Z,19.95
2022-08-07T19:26:29.020Z,19.71
2022-08-07T19:30:58.632Z,19.42
2022-08-07T19:32:08.035Z,19.42
2022-08-07T19:34:47.725Z,19.34
2022-08-07T19:37:20.212Z,19.12
2022-08-07T19:40:02.054Z,19.04
2022-08-07T19:42:33.639Z,18.93
2022-08-07T19:46:05.615Z,18.87
2022-08-07T19:48:03.410Z,18.73
2022-08-07T19:50:43.193Z,18.59
2022-08-07T19:54:44.022Z,18.33
2022-08-07T19:56:12.139Z,18.21
2022-08-07T19:58:53.185Z,18.03
2022-08-07T20:01:23.136Z,17.83
2022-08-07T20:04:11.430Z,17.72
2022-08-07T20:06:59.277Z,17.54
2022-08-07T20:10:33.906Z,17.40
2022-08-07T20:12:34.634Z,17.27
2022-08-07T20:15:15.564Z,17.31
2022-08-07T20:18:01.581Z,17.13
2022-08-07T20:20:32.837Z,16.95
2022-08-07T20:23:23.296Z,16.89
2022-08-07T20:25:56.615Z,16.74
2022-08-07T20:28:29.979Z,16.69
2022-08-07T20:31:00.247Z,16.76
2022-08-07T20:33:38.307Z,16.56
2022-08-07T20:36:09.793Z,16.51
2022-08-07T20:38:59.542Z,16.37
2022-08-07T20:41:33.962Z,16.17
2022-08-07T20:44:12.312Z,16.22
2022-08-07T20:46:44.367Z,16.14
2022-08-07T20:49:58.517Z,16.12
2022-08-07T20:52:16.721Z,15.99
2022-08-07T20:54:53.371Z,15.95
2022-08-07T20:57:25.975Z,15.85
2022-08-07T21:00:07.108Z,15.89
2022-08-07T21:02:57.889Z,15.89
2022-08-07T21:05:51.198Z,15.77
2022-08-07T21:08:36.798Z,15.69
2022-08-07T21:11:10.851Z,15.58
2022-08-07T21:14:16.370Z,15.67
2022-08-07T21:16:55.971Z,15.62
2022-08-07T21:19:32.362Z,15.45
2022-08-07T21:22:19.534Z,15.55
2022-08-07T21:25:04.685Z,15.53
2022-08-07T21:27:53.838Z,15.41
2022-08-07T21:30:30.363Z,15.29
2022-08-07T21:33:08.031Z,15.34
2022-08-07T21:36:04.824Z,15.24
2022-08-07T21:38:31.480Z,15.18
2022-08-07T21:41:10.135Z,15.01
2022-08-07T21:43:56.515Z,15.10
2022-08-07T21:46:32.985Z,15.05
2022-08-07T21:49:14.932Z,14.95
2022-08-07T21:51:54.820Z,14.95
2022-08-07T21:54:39.110Z,14.94
2022-08-07T21:57:31.098Z,14.99
2022-08-07T22:00:22.868Z,14.91
2022-08-07T22:03:05.578Z,14.72
2022-08-07T22:05:45.841Z,14.75
2022-08-07T22:08:18.580Z,14.56
2022-08-07T22:10:50.804Z,14.64
2022-08-07T22:13:24.348Z,14.58
2022-08-07T22:16:43.042Z,14.41
2022-08-07T22:19:20.088Z,14.35
2022-08-07T22:22:01.960Z,14.29
2022-08-07T22:24:37.763Z,14.30
2022-08-07T22:27:15.997Z,14.23
2022-08-07T22:29:50.368Z,14.00
2022-08-07T22:32:28.727Z,14.03
2022-08-07T22:35:00.901Z,13.81
2022-08-07T22:38:04.190Z,13.83
2022-08-07T22:40:37.068Z,13.69
2022-08-07T22:43:09.973Z,13.72
2022-08-07T22:46:21.789Z,13.58
2022-08-07T22:49:01.473Z,13.75
2022-08-07T22:51:51.986Z,13.75
2022-08-07T22:54:54.178Z,13.73
2022-08-07T22:57:43.112Z,13.64
2022-08-07T23:00:17.657Z,13.52
2022-08-07T23:03:03.748Z,13.53
2022-08-07T23:06:09.488Z,13.49
2022-08-07T23:10:00.732Z,13.47
2022-08-07T23:12:32.653Z,13.31
2022-08-07T23:16:04.572Z,13.30
2022-08-07T23:18:27.808Z,13.29
2022-08-07T23:21:30.072Z,13.22
2022-08-07T23:24:29.510Z,13.08
2022-08-07T23:27:17.912Z,13.11
2022-08-07T23:30:39.456Z,13.25
2022-08-07T23:34:33.672Z,13.09
2022-08-07T23:36:17.456Z,12.98
2022-08-07T23:38:59.941Z,12.90
2022-08-07T23:42:04.783Z,12.94
2022-08-07T23:44:55.381Z,13.08
2022-08-07T23:47:47.911Z,12.92
2022-08-07T23:50:43.564Z,12.87
2022-08-07T23:53:50.859Z,12.77
